Time;durP1;ratioP1;P1;durP2;ratioP2;P2;SDS_P1;SDS_P2;PMS_P1;PMS_P2;Temp;Humidity;BMP_temperature;BMP_pressure;BME280_temperature;BME280_humidity;BME280_pressure;Samples;Min_cycle;Max_cycle;Signal;HPM_P1;HPM_P2
2021/01/05 00:01:49;;;;;;;;;75.25;58.75;;;;;5.81;94.54;98995.78;5069942;28;8821;-60
2021/01/05 00:04:16;;;;;;;;;82.25;59.75;;;;;5.86;94.37;98999.06;5065561;28;8845;-60
2021/01/05 00:06:43;;;;;;;;;75.50;58.00;;;;;5.84;94.38;98995.63;5065048;28;8826;-60
2021/01/05 00:09:10;;;;;;;;;82.75;58.50;;;;;5.92;95.02;98988.09;5067308;28;8841;-61
2021/01/05 00:12:06;;;;;;;;;74.75;57.50;;;;;5.87;94.03;98997.25;5067225;28;8957;-59
2021/01/05 00:14:35;;;;;;;;;76.25;56.25;;;;;5.96;94.34;98993.28;5057311;28;8844;-60
2021/01/05 00:17:05;;;;;;;;;76.75;56.00;;;;;5.98;94.50;98980.72;5062919;28;8869;-60
2021/01/05 00:19:33;;;;;;;;;82.50;57.75;;;;;5.86;94.47;98988.41;5066059;28;8914;-60
2021/01/05 00:22:00;;;;;;;;;69.50;55.25;;;;;5.87;94.97;98999.91;5066537;28;9564;-60
2021/01/05 00:24:27;;;;;;;;;66.25;52.25;;;;;5.92;94.73;98993.44;5065987;28;8845;-60
2021/01/05 00:26:54;;;;;;;;;72.00;56.75;;;;;6.04;94.29;98993.72;5062773;28;8828;-60
2021/01/05 00:29:21;;;;;;;;;71.75;53.25;;;;;5.89;94.43;98993.56;5081847;28;8849;-60
2021/01/05 00:31:48;;;;;;;;;74.75;53.00;;;;;5.83;94.80;98993.91;5066269;28;8845;-59
2021/01/05 00:34:16;;;;;;;;;75.75;55.75;;;;;5.98;93.94;98986.06;5066286;28;9569;-60
2021/01/05 00:36:43;;;;;;;;;68.00;52.00;;;;;5.90;93.86;98984.66;5067406;28;8825;-60
2021/01/05 00:39:10;;;;;;;;;69.25;49.75;;;;;5.91;94.64;98989.03;5067041;28;8837;-59
2021/01/05 00:41:37;;;;;;;;;70.50;55.00;;;;;6.00;94.61;98994.84;5066943;28;9539;-60
2021/01/05 00:44:04;;;;;;;;;65.25;52.00;;;;;6.01;94.55;98988.56;5069993;28;9575;-60
2021/01/05 00:46:31;;;;;;;;;63.75;48.75;;;;;5.93;93.67;98984.50;5069101;28;8826;-60
2021/01/05 00:48:58;;;;;;;;;78.50;59.00;;;;;5.89;93.93;98977.59;5069210;28;8871;-60
2021/01/05 00:51:25;;;;;;;;;80.50;59.25;;;;;5.81;95.33;98984.28;5070038;28;8845;-61
2021/01/05 00:53:51;;;;;;;;;70.00;56.25;;;;;5.71;95.44;98979.44;5071343;28;8830;-60
2021/01/05 00:56:18;;;;;;;;;73.25;53.00;;;;;5.72;95.37;98977.66;5070747;28;8838;-60
2021/01/05 00:58:45;;;;;;;;;65.00;48.25;;;;;5.72;95.51;98975.84;5070903;28;8830;-60
2021/01/05 01:01:13;;;;;;;;;64.25;49.50;;;;;5.79;95.14;98973.69;5085192;28;8822;-60
2021/01/05 01:03:40;;;;;;;;;69.00;48.67;;;;;5.77;94.31;98978.25;5066410;28;8945;-61
2021/01/05 01:06:07;;;;;;;;;64.00;44.67;;;;;5.73;93.81;98982.00;5069052;28;8940;-60
2021/01/05 01:08:34;;;;;;;;;65.33;47.00;;;;;5.74;94.07;98983.75;5069451;28;8846;-60
2021/01/05 01:11:02;;;;;;;;;59.00;44.33;;;;;5.63;94.45;98991.44;5085779;28;8817;-60
2021/01/05 01:13:29;;;;;;;;;60.00;42.33;;;;;5.70;95.05;98992.84;5085806;28;8841;-59
2021/01/05 01:15:56;;;;;;;;;58.00;45.00;;;;;5.84;94.75;98992.09;5069237;28;8849;-60
2021/01/05 01:18:23;;;;;;;;;53.00;41.33;;;;;5.71;93.88;98994.53;5069420;28;8856;-61
2021/01/05 01:20:49;;;;;;;;;54.33;44.67;;;;;5.82;93.92;98992.19;5070114;28;8817;-60
2021/01/05 01:23:17;;;;;;;;;59.00;44.00;;;;;5.72;94.31;98993.63;5070975;28;8823;-60
2021/01/05 01:25:43;;;;;;;;;57.33;44.00;;;;;5.68;94.35;98992.91;5064676;28;8825;-60
2021/01/05 01:28:11;;;;;;;;;56.67;43.00;;;;;5.86;93.22;98985.75;5070834;28;8861;-60
2021/01/05 01:30:39;;;;;;;;;52.67;38.33;;;;;5.89;93.72;98979.38;5068308;28;8946;-60
2021/01/05 01:33:06;;;;;;;;;54.33;43.00;;;;;5.84;92.93;98973.44;5052915;28;8853;-59
2021/01/05 01:35:34;;;;;;;;;44.00;36.33;;;;;5.78;93.12;98969.31;5070127;28;8838;-59
2021/01/05 01:38:01;;;;;;;;;55.00;41.00;;;;;5.77;92.59;98967.59;5051699;28;8830;-60
2021/01/05 01:40:42;;;;;;;;;51.67;43.33;;;;;5.81;93.49;98963.81;5084990;28;8849;-60
2021/01/05 01:43:09;;;;;;;;;54.67;41.33;;;;;5.85;93.35;98957.41;5068755;28;9623;-59
2021/01/05 01:45:37;;;;;;;;;45.67;38.33;;;;;5.83;93.14;98956.63;5053986;28;8832;-60
2021/01/05 01:48:09;;;;;;;;;60.33;42.33;;;;;5.82;92.45;98954.00;5069428;28;8842;-60
2021/01/05 01:50:37;;;;;;;;;49.33;37.33;;;;;5.86;92.91;98944.94;5067021;28;8825;-60
2021/01/05 01:53:27;;;;;;;;;56.00;41.00;;;;;5.79;92.22;98949.72;5069516;28;8814;-60
2021/01/05 01:56:37;;;;;;;;;58.00;41.33;;;;;5.82;92.26;98941.59;5068251;28;8903;-60
2021/01/05 01:59:18;;;;;;;;;23.00;21.33;;;;;5.66;92.73;98938.00;5065337;28;8834;-60
2021/01/05 02:01:59;;;;;;;;;48.33;37.00;;;;;5.76;93.04;98933.91;5068545;28;8821;-60
2021/01/05 02:04:56;;;;;;;;;50.33;37.67;;;;;5.71;92.54;98925.31;5068870;28;8813;-60
2021/01/05 02:08:06;;;;;;;;;47.67;38.67;;;;;5.78;92.33;98926.69;5062415;28;8841;-59
2021/01/05 02:11:04;;;;;;;;;53.33;42.00;;;;;5.64;93.66;98924.78;5062256;28;8851;-60
2021/01/05 02:14:07;;;;;;;;;50.00;42.00;;;;;5.69;93.02;98927.22;5064531;28;8825;-60
2021/01/05 02:16:56;;;;;;;;;56.33;42.00;;;;;5.60;93.70;98917.91;5051172;28;8857;-60
2021/01/05 02:19:52;;;;;;;;;59.00;44.33;;;;;5.56;93.27;98921.69;5066278;28;9633;-59
2021/01/05 02:22:32;;;;;;;;;52.33;41.33;;;;;5.48;94.42;98921.22;5066161;28;8841;-60
2021/01/05 02:25:37;;;;;;;;;67.75;50.00;;;;;5.48;94.24;98930.06;5068885;28;8862;-60
2021/01/05 02:28:10;;;;;;;;;68.00;49.25;;;;;5.55;93.93;98919.09;5030513;28;8853;-60
2021/01/05 02:30:45;;;;;;;;;56.00;44.00;;;;;5.37;93.35;98919.13;5067923;28;8833;-60
2021/01/05 02:33:45;;;;;;;;;60.00;46.67;;;;;5.35;93.65;98920.16;5048110;28;8864;-61
2021/01/05 02:36:40;;;;;;;;;62.50;47.25;;;;;5.47;94.39;98907.03;5067675;28;8851;-61
2021/01/05 02:40:07;;;;;;;;;59.33;44.33;;;;;5.38;93.75;98904.03;5067128;28;8838;-60
2021/01/05 02:43:17;;;;;;;;;59.33;44.67;;;;;5.38;94.37;98907.53;5067732;28;8889;-60
2021/01/05 02:46:02;;;;;;;;;69.33;46.33;;;;;5.38;93.56;98906.69;5066136;28;8980;-59
2021/01/05 02:48:53;;;;;;;;;63.00;43.33;;;;;5.35;94.12;98907.72;5065480;28;8898;-61
2021/01/05 02:51:48;;;;;;;;;56.67;46.00;;;;;5.40;92.77;98908.31;5064734;28;8845;-60
2021/01/05 02:54:58;;;;;;;;;60.33;45.33;;;;;5.47;93.43;98899.03;5063362;28;8990;-60
2021/01/05 02:57:46;;;;;;;;;66.67;49.00;;;;;5.42;93.38;98902.91;5060208;28;8853;-60
2021/01/05 03:00:25;;;;;;;;;58.67;44.67;;;;;5.46;93.02;98894.69;5061983;28;8844;-61
2021/01/05 03:03:36;;;;;;;;;55.33;42.33;;;;;5.50;93.54;98893.59;5067507;28;8845;-60
2021/01/05 03:06:27;;;;;;;;;61.33;47.67;;;;;5.42;93.34;98889.59;5067290;28;9642;-60
2021/01/05 03:09:31;;;;;;;;;68.25;51.00;;;;;5.47;93.57;98885.72;5067984;28;8826;-60
2021/01/05 03:12:19;;;;;;;;;63.67;45.00;;;;;5.43;93.29;98878.88;5068244;28;8829;-60
2021/01/05 03:15:07;;;;;;;;;52.33;33.67;;;;;5.40;93.85;98884.38;5068552;28;8849;-60
2021/01/05 03:18:01;;;;;;;;;65.67;46.00;;;;;5.38;93.46;98880.06;5064812;28;8907;-61
2021/01/05 03:20:41;;;;;;;;;60.00;46.00;;;;;5.31;93.71;98884.00;5059271;28;8814;-60
2021/01/05 03:23:12;;;;;;;;;57.67;45.67;;;;;5.46;93.31;98884.03;5066985;28;8833;-61
2021/01/05 03:25:45;;;;;;;;;52.25;40.25;;;;;5.43;92.89;98876.22;5083982;28;8857;-60
2021/01/05 03:28:19;;;;;;;;;65.67;46.67;;;;;5.35;92.91;98875.75;5082992;28;8834;-61
2021/01/05 03:31:12;;;;;;;;;53.67;41.33;;;;;5.44;92.16;98877.06;5061138;28;8844;-61
2021/01/05 03:33:42;;;;;;;;;54.00;44.33;;;;;5.54;93.22;98874.78;5083465;28;8850;-60
2021/01/05 03:36:11;;;;;;;;;113.00;94.50;;;;;5.46;93.12;98876.03;5066621;28;8841;-60
2021/01/05 03:38:38;;;;;;;;;76.50;61.00;;;;;5.57;92.28;98874.59;5065942;28;8849;-59
2021/01/05 03:41:05;;;;;;;;;77.00;56.00;;;;;5.62;91.97;98872.56;5067389;28;8837;-61
2021/01/05 03:43:33;;;;;;;;;67.00;51.50;;;;;5.52;92.04;98874.00;5065754;28;8894;-60
2021/01/05 03:46:00;;;;;;;;;51.33;41.33;;;;;5.48;91.78;98871.50;5067774;28;8960;-60
2021/01/05 03:48:27;;;;;;;;;43.67;37.00;;;;;5.44;91.19;98863.75;5068980;28;8934;-60
2021/01/05 03:50:54;;;;;;;;;54.67;42.00;;;;;5.45;92.42;98865.47;5084500;28;8830;-59
2021/01/05 03:53:21;;;;;;;;;55.67;41.33;;;;;5.42;91.05;98869.16;5069606;28;8837;-60
2021/01/05 03:55:47;;;;;;;;;50.67;41.33;;;;;5.50;92.20;98866.97;5084580;28;8841;-60
2021/01/05 03:58:14;;;;;;;;;48.00;36.67;;;;;5.40;90.97;98857.75;5085341;28;8883;-59
2021/01/05 04:00:41;;;;;;;;;40.33;36.33;;;;;5.53;91.10;98859.72;5069265;28;8843;-59
2021/01/05 04:03:08;;;;;;;;;44.00;41.00;;;;;5.41;91.35;98856.78;5069294;28;8816;-60
2021/01/05 04:05:35;;;;;;;;;53.00;37.67;;;;;5.56;92.13;98862.25;5067524;28;8870;-60
2021/01/05 04:08:02;;;;;;;;;33.67;29.00;;;;;5.71;90.15;98858.72;5069018;28;8836;-60
2021/01/05 04:10:29;;;;;;;;;38.33;29.33;;;;;5.64;89.32;98865.34;5083959;28;8964;-60
2021/01/05 04:12:57;;;;;;;;;38.33;30.67;;;;;5.50;90.85;98864.28;5084016;28;9674;-60
2021/01/05 04:15:28;;;;;;;;;46.67;35.67;;;;;5.49;90.84;98857.22;5084688;28;8971;-59
2021/01/05 04:17:59;;;;;;;;;53.33;39.67;;;;;5.53;91.32;98857.06;5070011;28;8827;-60
2021/01/05 04:20:29;;;;;;;;;47.33;34.00;;;;;5.44;90.24;98859.28;5055392;28;8981;-60
2021/01/05 04:22:58;;;;;;;;;49.00;40.00;;;;;5.47;91.26;98853.78;5052589;28;9685;-60
2021/01/05 04:25:26;;;;;;;;;37.00;32.33;;;;;5.55;90.15;98855.19;5066492;28;8813;-60
2021/01/05 04:27:54;;;;;;;;;43.00;33.33;;;;;5.52;90.59;98850.03;5054889;28;8831;-60
2021/01/05 04:30:43;;;;;;;;;48.33;36.00;;;;;5.48;90.35;98860.84;5072007;28;8914;-60
2021/01/05 04:33:12;;;;;;;;;49.67;36.00;;;;;5.61;89.16;98860.16;5073666;28;8926;-60
2021/01/05 04:35:40;;;;;;;;;37.00;30.33;;;;;5.60;89.09;98861.13;5071015;28;8927;-61
2021/01/05 04:38:07;;;;;;;;;47.67;40.00;;;;;5.52;89.41;98861.53;5072676;28;8935;-60
2021/01/05 04:40:44;;;;;;;;;48.33;32.00;;;;;5.67;88.93;98865.19;5071794;28;8880;-59
2021/01/05 04:43:52;;;;;;;;;64.00;45.33;;;;;5.60;90.24;98874.44;5072920;28;8830;-60
2021/01/05 04:46:18;;;;;;;;;51.67;40.67;;;;;5.52;90.57;98881.97;5071086;28;8827;-61
2021/01/05 04:49:32;;;;;;;;;54.00;38.00;;;;;5.35;91.20;98883.75;5072838;28;8845;-60
2021/01/05 04:52:07;;;;;;;;;64.67;44.33;;;;;5.40;90.30;98889.69;5072324;28;8960;-60
2021/01/05 04:55:14;;;;;;;;;66.00;44.33;;;;;5.43;89.54;98900.16;5087369;28;8858;-61
2021/01/05 04:57:42;;;;;;;;;67.50;52.25;;;;;5.35;89.27;98885.56;5064732;28;8847;-60
2021/01/05 05:00:26;;;;;;;;;61.67;43.33;;;;;5.46;89.97;98896.47;5071373;28;8954;-60
2021/01/05 05:03:38;;;;;;;;;68.75;49.25;;;;;5.30;89.89;98904.44;5086849;28;8863;-61
2021/01/05 05:06:32;;;;;;;;;62.00;49.25;;;;;5.41;90.03;98902.03;5072113;28;8845;-59
2021/01/05 05:09:07;;;;;;;;;73.00;51.50;;;;;5.31;89.58;98906.13;5070999;28;8828;-60
2021/01/05 05:12:03;;;;;;;;;65.50;49.75;;;;;5.39;90.39;98903.91;5071751;28;8857;-60
2021/01/05 05:14:47;;;;;;;;;69.25;53.50;;;;;5.37;89.76;98904.94;5070703;28;8843;-61
2021/01/05 05:18:07;;;;;;;;;56.67;42.00;;;;;5.37;89.50;98903.16;5072029;28;8937;-61
2021/01/05 05:20:51;;;;;;;;;53.67;43.67;;;;;5.27;89.24;98916.09;5075361;28;8826;-60
2021/01/05 05:23:41;;;;;;;;;67.75;47.00;;;;;5.31;89.01;98911.47;5071706;28;8919;-61
2021/01/05 05:26:40;;;;;;;;;66.50;49.00;;;;;5.09;89.97;98916.19;5070472;28;8904;-60
2021/01/05 05:29:56;;;;;;;;;63.25;49.00;;;;;5.23;90.49;98913.66;5055770;28;8815;-60
2021/01/05 05:32:41;;;;;;;;;58.00;45.00;;;;;5.27;90.66;98905.44;5070603;28;8908;-60
2021/01/05 05:35:46;;;;;;;;;66.67;44.33;;;;;5.22;89.90;98910.16;5070999;28;8815;-60
2021/01/05 05:39:06;;;;;;;;;54.75;46.25;;;;;5.22;90.36;98912.81;5071236;28;8833;-61
2021/01/05 05:42:14;;;;;;;;;66.00;46.75;;;;;5.06;90.15;98912.75;5071296;28;8833;-60
2021/01/05 05:45:00;;;;;;;;;62.75;46.25;;;;;5.12;89.99;98906.25;5068097;28;8878;-60
2021/01/05 05:47:51;;;;;;;;;54.00;45.00;;;;;4.90;91.48;98906.50;5070014;28;8859;-60
2021/01/05 05:50:49;;;;;;;;;71.50;48.25;;;;;5.13;90.67;98907.09;5073559;28;8835;-60
2021/01/05 05:53:22;;;;;;;;;58.50;45.50;;;;;5.20;89.71;98909.34;5071177;28;8900;-59
2021/01/05 05:56:09;;;;;;;;;64.25;45.00;;;;;5.15;89.47;98905.22;5070192;28;8863;-60
2021/01/05 05:58:42;;;;;;;;;65.00;48.75;;;;;5.03;89.74;98902.25;5069354;28;8823;-61
2021/01/05 06:01:18;;;;;;;;;63.50;49.75;;;;;5.09;90.79;98905.56;5069863;28;8837;-59
2021/01/05 06:03:45;;;;;;;;;71.50;48.25;;;;;5.02;89.53;98905.84;5069814;28;8893;-60
2021/01/05 06:06:12;;;;;;;;;53.25;42.00;;;;;4.94;90.10;98901.88;5070014;28;8851;-61
2021/01/05 06:08:38;;;;;;;;;67.75;48.50;;;;;4.94;90.36;98900.06;5070552;28;8857;-61
2021/01/05 06:11:05;;;;;;;;;66.00;46.50;;;;;4.88;91.25;98908.38;5070502;28;8866;-60
2021/01/05 06:13:32;;;;;;;;;67.50;49.50;;;;;4.89;90.18;98914.53;5086542;28;8839;-60
2021/01/05 06:15:59;;;;;;;;;63.25;50.50;;;;;4.86;90.66;98914.69;5068839;28;8871;-60
2021/01/05 06:18:26;;;;;;;;;65.50;49.75;;;;;4.90;90.56;98911.81;5070038;28;8829;-60
2021/01/05 06:20:52;;;;;;;;;66.50;49.50;;;;;4.79;91.62;98908.81;5084834;28;8834;-60
2021/01/05 06:23:19;;;;;;;;;72.25;51.50;;;;;4.93;91.08;98922.28;5069511;28;9559;-60
2021/01/05 06:25:47;;;;;;;;;71.00;52.75;;;;;4.72;90.83;98923.38;5070530;28;8976;-60
2021/01/05 06:28:14;;;;;;;;;66.00;49.50;;;;;4.81;91.27;98928.22;5069422;28;8906;-60
2021/01/05 06:30:42;;;;;;;;;71.25;52.25;;;;;4.86;91.10;98922.69;5068973;28;8955;-60
2021/01/05 06:33:09;;;;;;;;;65.00;49.00;;;;;4.89;90.52;98923.38;5069289;28;8837;-60
2021/01/05 06:35:35;;;;;;;;;66.25;45.75;;;;;4.79;91.28;98927.44;5079963;28;8842;-60
2021/01/05 06:38:03;;;;;;;;;68.75;47.50;;;;;4.84;91.16;98928.94;5067225;28;8828;-61
2021/01/05 06:40:30;;;;;;;;;51.25;43.50;;;;;4.84;91.30;98928.06;5069217;28;8814;-60
2021/01/05 06:42:57;;;;;;;;;71.50;48.75;;;;;4.79;90.93;98935.41;5068631;28;8849;-60
2021/01/05 06:45:31;;;;;;;;;67.75;54.00;;;;;4.83;90.98;98942.31;5085131;28;9646;-61
2021/01/05 06:47:59;;;;;;;;;72.75;56.25;;;;;4.80;90.45;98939.81;5069427;28;8862;-60
2021/01/05 06:50:30;;;;;;;;;82.25;56.75;;;;;4.89;90.22;98946.47;5084664;28;8834;-60
2021/01/05 06:52:57;;;;;;;;;77.75;56.25;;;;;4.76;91.24;98940.88;5068328;28;8827;-60
2021/01/05 06:55:24;;;;;;;;;71.00;49.75;;;;;4.90;91.22;98957.03;5069887;28;8835;-60
2021/01/05 06:57:51;;;;;;;;;65.75;49.00;;;;;4.81;92.00;98952.16;5068333;28;8868;-59
2021/01/05 07:00:23;;;;;;;;;65.00;46.50;;;;;4.88;90.88;98950.91;5086195;28;8815;-60
2021/01/05 07:02:51;;;;;;;;;73.50;50.50;;;;;4.67;91.29;98957.31;5068296;28;8845;-59
2021/01/05 07:05:19;;;;;;;;;77.50;56.75;;;;;4.65;91.87;98956.50;5085395;28;8833;-60
2021/01/05 07:07:47;;;;;;;;;72.00;50.75;;;;;4.79;91.75;98954.91;5068321;28;9570;-60
2021/01/05 07:10:17;;;;;;;;;69.25;50.50;;;;;4.80;91.63;98956.63;5068910;28;8819;-61
2021/01/05 07:12:46;;;;;;;;;71.75;53.00;;;;;4.83;90.84;98956.47;5068229;28;9644;-59
2021/01/05 07:15:16;;;;;;;;;69.00;49.00;;;;;5.10;90.53;98952.50;5068870;28;8903;-60
2021/01/05 07:17:43;;;;;;;;;76.75;57.50;;;;;4.94;90.52;98957.72;5085423;28;8865;-60
2021/01/05 07:20:12;;;;;;;;;74.00;55.00;;;;;4.87;90.78;98954.53;5084804;28;9707;-61
2021/01/05 07:22:39;;;;;;;;;77.25;53.25;;;;;4.73;92.12;98957.00;5067789;28;8942;-60
2021/01/05 07:25:10;;;;;;;;;77.25;56.00;;;;;4.89;91.37;98957.09;5064719;28;8836;-60
2021/01/05 07:27:38;;;;;;;;;75.00;51.50;;;;;4.67;91.37;98957.31;5048226;28;8906;-61
2021/01/05 07:30:07;;;;;;;;;72.25;53.00;;;;;4.71;92.23;98954.41;5069547;28;8924;-60
2021/01/05 07:32:34;;;;;;;;;81.00;58.75;;;;;4.72;91.55;98958.81;5068541;28;8922;-61
2021/01/05 07:35:01;;;;;;;;;82.00;59.75;;;;;4.72;92.45;98955.28;5084571;28;8864;-60
2021/01/05 07:37:35;;;;;;;;;73.00;50.50;;;;;4.82;91.54;98956.56;5069301;28;8946;-60
2021/01/05 07:40:03;;;;;;;;;77.50;54.50;;;;;4.99;90.32;98958.34;5048250;28;8880;-60
2021/01/05 07:42:32;;;;;;;;;72.50;55.00;;;;;5.05;90.81;98944.72;5060553;28;8852;-60
2021/01/05 07:45:02;;;;;;;;;74.00;56.75;;;;;4.98;90.82;98944.19;5051448;28;8856;-60
2021/01/05 07:47:35;;;;;;;;;71.75;53.50;;;;;4.80;91.57;98953.09;5067267;28;8838;-61
2021/01/05 07:50:08;;;;;;;;;76.00;53.75;;;;;4.79;91.40;98948.69;5084259;28;8839;-59
2021/01/05 07:52:37;;;;;;;;;75.25;54.75;;;;;4.84;91.35;98965.28;5083814;28;9485;-61
2021/01/05 07:55:27;;;;;;;;;64.25;47.75;;;;;4.65;90.96;98959.19;5047815;28;8958;-59
2021/01/05 07:57:55;;;;;;;;;85.50;61.50;;;;;4.70;91.89;98963.31;5048593;28;8836;-59
2021/01/05 08:00:27;;;;;;;;;71.00;52.50;;;;;4.68;91.19;98970.50;5047951;28;8896;-61
2021/01/05 08:02:55;;;;;;;;;73.75;54.00;;;;;4.73;91.70;98967.63;5056035;28;8824;-60
2021/01/05 08:05:26;;;;;;;;;80.25;54.00;;;;;4.69;90.27;98966.06;5062813;28;8958;-61
2021/01/05 08:07:55;;;;;;;;;64.25;46.25;;;;;4.80;90.85;98977.03;5052000;28;8861;-60
2021/01/05 08:10:29;;;;;;;;;74.25;55.25;;;;;4.84;90.44;98970.63;5084642;28;8858;-60
2021/01/05 08:12:57;;;;;;;;;76.50;50.50;;;;;4.83;90.75;98960.94;5069155;28;8825;-61
2021/01/05 08:15:29;;;;;;;;;78.00;55.25;;;;;4.81;90.55;98976.09;5067223;28;8926;-61
2021/01/05 08:17:57;;;;;;;;;67.50;51.00;;;;;4.67;91.33;98974.13;5065055;28;8866;-61
2021/01/05 08:20:28;;;;;;;;;76.50;50.75;;;;;5.00;90.78;98966.28;5068153;28;8826;-60
2021/01/05 08:22:56;;;;;;;;;69.00;55.25;;;;;4.91;90.77;98976.50;5066847;28;8847;-60
2021/01/05 08:25:24;;;;;;;;;72.25;50.25;;;;;4.87;90.52;98965.16;5067764;28;8968;-60
2021/01/05 08:27:53;;;;;;;;;101.25;66.50;;;;;4.91;90.16;98972.03;5084336;28;8857;-62
2021/01/05 08:30:25;;;;;;;;;86.50;61.00;;;;;4.99;89.36;98982.28;5068148;28;8831;-61
2021/01/05 08:32:54;;;;;;;;;87.00;64.00;;;;;5.04;90.36;98978.47;5055904;28;8895;-60
2021/01/05 08:35:24;;;;;;;;;74.00;52.50;;;;;5.12;89.52;98985.22;5065396;28;8836;-60
2021/01/05 08:37:52;;;;;;;;;71.75;54.75;;;;;5.01;90.01;98981.28;5066948;28;8849;-60
2021/01/05 08:40:27;;;;;;;;;65.50;45.50;;;;;5.15;89.01;98995.69;5068245;28;8908;-61
2021/01/05 08:42:59;;;;;;;;;82.00;61.75;;;;;5.19;89.74;98992.81;5067075;28;9631;-60
2021/01/05 08:45:30;;;;;;;;;67.00;53.00;;;;;5.42;88.43;98996.94;5068330;28;8877;-61
2021/01/05 08:47:57;;;;;;;;;91.25;67.50;;;;;5.26;89.24;98998.66;5066448;28;8961;-61
2021/01/05 08:50:29;;;;;;;;;76.25;53.50;;;;;5.20;87.87;98993.66;5067068;28;8830;-61
2021/01/05 08:53:04;;;;;;;;;68.25;52.00;;;;;5.24;88.24;98998.75;5067325;28;8832;-61
2021/01/05 08:55:36;;;;;;;;;65.25;48.50;;;;;5.20;88.31;98998.97;5067697;28;8891;-62
2021/01/05 08:58:03;;;;;;;;;70.00;50.75;;;;;5.24;88.96;99003.22;5068421;28;9788;-61
2021/01/05 09:00:32;;;;;;;;;70.25;49.25;;;;;5.26;87.14;99001.31;5066595;28;8827;-60
2021/01/05 09:02:59;;;;;;;;;65.25;47.00;;;;;4.97;87.91;99003.63;5067837;28;8885;-60
2021/01/05 09:05:44;;;;;;;;;50.00;42.00;;;;;4.91;88.20;99005.75;5070564;28;8873;-61
2021/01/05 09:08:11;;;;;;;;;60.33;42.00;;;;;5.08;88.07;99016.41;5088114;28;8825;-60
2021/01/05 09:10:38;;;;;;;;;63.50;46.25;;;;;5.17;88.00;99012.44;5070601;28;8855;-61
2021/01/05 09:13:05;;;;;;;;;58.75;44.25;;;;;4.80;87.93;99015.13;5086692;28;8835;-60
2021/01/05 09:15:32;;;;;;;;;75.25;52.75;;;;;5.13;87.59;99022.38;5087119;28;8882;-60
2021/01/05 09:18:02;;;;;;;;;84.75;58.75;;;;;5.17;86.31;99020.44;5085843;28;8853;-61
2021/01/05 09:20:29;;;;;;;;;63.00;45.00;;;;;5.25;86.71;99026.22;5071842;28;8855;-61
2021/01/05 09:22:56;;;;;;;;;61.50;46.25;;;;;5.43;86.71;99027.09;5070434;28;8850;-61
2021/01/05 09:25:24;;;;;;;;;66.50;47.50;;;;;5.23;85.85;99030.75;5071586;28;8827;-62
2021/01/05 09:27:52;;;;;;;;;62.50;48.75;;;;;5.35;86.37;99026.63;5087188;28;8855;-61
2021/01/05 09:30:22;;;;;;;;;62.00;46.33;;;;;5.55;86.88;99022.94;5070120;28;8928;-61
2021/01/05 09:32:49;;;;;;;;;63.67;44.00;;;;;5.59;86.35;99021.84;5072904;28;8819;-60
2021/01/05 09:35:16;;;;;;;;;63.00;40.67;;;;;5.57;86.34;99018.38;5071065;28;8937;-60
2021/01/05 09:37:46;;;;;;;;;65.00;48.00;;;;;5.57;86.71;99018.38;5070694;28;8858;-60
2021/01/05 09:40:15;;;;;;;;;59.33;45.33;;;;;5.77;86.08;99025.34;5071324;28;8869;-61
2021/01/05 09:42:43;;;;;;;;;70.50;49.50;;;;;5.82;85.28;99021.50;5070163;28;8839;-61
2021/01/05 09:45:11;;;;;;;;;61.75;45.25;;;;;6.38;87.14;99022.94;5070326;28;8842;-60
2021/01/05 09:47:38;;;;;;;;;69.33;47.67;;;;;6.06;85.23;99027.34;5070020;28;8864;-60
2021/01/05 09:50:06;;;;;;;;;69.33;47.67;;;;;6.14;86.17;99029.59;5086821;28;9738;-61
2021/01/05 09:52:37;;;;;;;;;62.67;45.67;;;;;5.99;84.96;99030.44;5069617;28;8843;-61
2021/01/05 09:55:07;;;;;;;;;68.33;47.33;;;;;6.05;84.51;99035.41;5069263;28;8961;-60
2021/01/05 09:57:34;;;;;;;;;56.00;45.00;;;;;5.80;84.49;99033.19;5069629;28;8881;-61
2021/01/05 10:00:02;;;;;;;;;69.00;49.33;;;;;5.90;85.33;99043.25;5071394;28;8880;-60
2021/01/05 10:02:29;;;;;;;;;66.00;46.00;;;;;6.09;84.42;99052.97;5085840;28;8958;-61
2021/01/05 10:04:56;;;;;;;;;56.67;48.00;;;;;5.92;84.49;99052.03;5085470;28;8821;-60
2021/01/05 10:07:24;;;;;;;;;63.67;45.00;;;;;6.02;83.75;99049.75;5070469;28;8863;-61
2021/01/05 10:09:51;;;;;;;;;61.00;46.33;;;;;5.99;83.63;99051.75;5070643;28;8921;-60
2021/01/05 10:12:18;;;;;;;;;54.00;36.67;;;;;5.74;83.71;99050.34;5070503;28;8831;-60
2021/01/05 10:14:45;;;;;;;;;54.67;43.67;;;;;5.80;83.97;99051.81;5069343;28;8823;-61
2021/01/05 10:17:12;;;;;;;;;57.33;44.67;;;;;5.91;84.64;99044.97;5069971;28;8880;-61
2021/01/05 10:19:39;;;;;;;;;58.33;44.00;;;;;6.01;84.25;99045.38;5069723;28;8838;-61
2021/01/05 10:22:06;;;;;;;;;60.00;44.67;;;;;6.08;83.90;99046.78;5070664;28;8845;-62
2021/01/05 10:24:33;;;;;;;;;60.33;46.00;;;;;5.82;84.48;99050.81;5070507;28;8862;-60
2021/01/05 10:26:59;;;;;;;;;67.00;48.00;;;;;5.94;83.72;99047.50;5069144;28;8840;-60
2021/01/05 10:29:26;;;;;;;;;66.67;48.00;;;;;5.91;83.25;99050.31;5070425;28;8857;-60
2021/01/05 10:31:54;;;;;;;;;74.50;52.25;;;;;6.16;84.10;99054.34;5085705;28;8875;-60
2021/01/05 10:34:24;;;;;;;;;68.67;52.33;;;;;6.03;84.22;99053.28;5069124;28;8825;-60
2021/01/05 10:36:56;;;;;;;;;59.67;46.00;;;;;5.93;84.98;99053.78;5069803;28;8829;-61
2021/01/05 10:39:24;;;;;;;;;60.00;43.33;;;;;6.13;84.47;99054.50;5070298;28;8845;-61
2021/01/05 10:41:52;;;;;;;;;64.67;45.00;;;;;6.21;84.05;99062.09;5068712;28;9694;-60
2021/01/05 10:44:22;;;;;;;;;69.00;42.33;;;;;6.11;82.71;99051.94;5069962;28;8859;-60
2021/01/05 10:46:50;;;;;;;;;62.67;46.67;;;;;6.35;83.33;99044.44;5068091;28;8831;-60
2021/01/05 10:49:17;;;;;;;;;63.00;49.00;;;;;6.50;83.24;99052.53;5068315;28;8835;-61
2021/01/05 10:51:53;;;;;;;;;55.67;43.33;;;;;6.25;83.40;99050.34;5068624;28;8839;-61
2021/01/05 10:54:23;;;;;;;;;61.00;48.00;;;;;6.94;83.00;99046.50;5068926;28;8839;-61
2021/01/05 10:57:03;;;;;;;;;59.67;45.00;;;;;6.67;81.83;99055.13;5064303;28;8855;-61
2021/01/05 10:59:32;;;;;;;;;61.00;44.67;;;;;6.71;82.36;99056.66;5050720;28;9558;-61
2021/01/05 11:02:02;;;;;;;;;60.67;41.67;;;;;6.57;81.46;99059.25;5053066;28;8843;-61
2021/01/05 11:04:30;;;;;;;;;51.67;42.67;;;;;6.74;81.03;99056.50;5083919;28;8888;-61
2021/01/05 11:07:05;;;;;;;;;45.33;28.67;;;;;6.48;81.69;99065.94;5068069;28;8831;-61
2021/01/05 11:09:33;;;;;;;;;54.67;40.67;;;;;6.24;82.51;99069.94;5069166;28;8992;-61
2021/01/05 11:12:10;;;;;;;;;65.00;46.67;;;;;6.59;82.61;99062.69;5070571;28;8942;-61
2021/01/05 11:14:42;;;;;;;;;61.67;45.00;;;;;6.02;82.12;99062.22;5069320;28;8925;-62
2021/01/05 11:17:09;;;;;;;;;55.33;36.33;;;;;6.02;83.44;99063.09;5047250;28;8903;-61
2021/01/05 11:19:37;;;;;;;;;51.33;40.00;;;;;6.00;83.51;99072.09;5056858;28;8821;-60
2021/01/05 11:22:08;;;;;;;;;61.00;41.67;;;;;5.75;85.25;99067.19;5084011;28;8833;-61
2021/01/05 11:24:37;;;;;;;;;61.67;44.67;;;;;5.76;84.21;99064.41;5066043;28;8844;-62
2021/01/05 11:27:06;;;;;;;;;60.67;44.67;;;;;5.85;84.18;99066.63;5067020;28;8900;-60
2021/01/05 11:29:35;;;;;;;;;74.00;54.00;;;;;5.88;83.97;99066.44;5067799;28;8850;-62
2021/01/05 11:32:06;;;;;;;;;51.00;41.33;;;;;5.58;84.08;99066.25;5066798;28;8835;-61
2021/01/05 11:34:34;;;;;;;;;60.33;45.67;;;;;5.66;84.71;99057.84;5051116;28;8866;-61
2021/01/05 11:37:07;;;;;;;;;51.00;44.00;;;;;5.52;84.31;99063.03;5067717;28;8825;-60
2021/01/05 11:39:35;;;;;;;;;57.67;44.33;;;;;5.58;84.78;99065.38;5069621;28;8857;-60
2021/01/05 11:42:04;;;;;;;;;73.00;53.00;;;;;5.78;84.76;99067.88;5067716;28;8821;-59
2021/01/05 11:44:32;;;;;;;;;62.50;48.00;;;;;5.52;84.77;99076.34;5069116;28;8887;-60
2021/01/05 11:46:59;;;;;;;;;62.00;46.00;;;;;5.49;84.13;99070.22;5083795;28;8880;-60
2021/01/05 11:49:27;;;;;;;;;70.25;49.50;;;;;5.67;84.82;99072.91;5068025;28;8946;-60
2021/01/05 11:51:56;;;;;;;;;76.00;55.00;;;;;5.44;85.29;99072.25;5068348;28;8831;-60
2021/01/05 11:54:25;;;;;;;;;56.33;43.67;;;;;5.47;84.58;99080.09;5066909;28;8855;-60
2021/01/05 11:56:59;;;;;;;;;63.00;45.67;;;;;5.65;83.38;99082.75;5068163;28;8830;-60
2021/01/05 11:59:30;;;;;;;;;61.33;44.00;;;;;5.89;84.41;99092.13;5068521;28;8838;-60
2021/01/05 12:02:01;;;;;;;;;59.00;42.67;;;;;5.79;84.73;99079.38;5082901;28;9662;-60
2021/01/05 12:04:29;;;;;;;;;57.33;42.00;;;;;5.67;83.13;99083.56;5068796;28;8976;-60
2021/01/05 12:06:57;;;;;;;;;55.67;38.00;;;;;5.57;83.37;99090.28;5068129;28;8892;-61